Redlynch, United Kingdom
Current Conditions -  °F | °C
As of 4:50 PM on Friday 19 Dec 2014 (Local Time) from EGDY Reporting Station
Broken Clouds Broken Clouds  
Wind Chill: 42°   Ceiling: 4400
Heat Index: 46°   Visibility: 6mi
Dew Point: 39°   Wind: 9mph
Humidity: 76%   Direction: 250°WSW
Pressure: 30.18"   Gusts: NA
Location:  51.1°N, 2.43°W
Report Text: EGDY 191650Z AUTO 25008KT 9999 FEW034/// BKN044/// 08/04 Q1022
Loading
Personal Weather Stations






























Interactive Weather Map New forecast layout! Learn more

10-Day Weather Forecast

Advertisements
Track Severe Weather on mobile